createdAt,value
2018-09-24T00:02:25.035Z,7.80
2018-09-24T00:04:54.976Z,8.63
2018-09-24T00:07:25.799Z,7.83
2018-09-24T00:09:55.541Z,9.53
2018-09-24T00:12:25.927Z,9.80
2018-09-24T00:14:55.737Z,9.70
2018-09-24T00:17:25.504Z,9.93
2018-09-24T00:19:55.369Z,10.07
2018-09-24T00:22:25.367Z,10.23
2018-09-24T00:24:55.423Z,10.30
2018-09-24T00:27:25.555Z,10.70
2018-09-24T00:29:56.391Z,10.33
2018-09-24T00:32:26.180Z,10.40
2018-09-24T00:34:56.096Z,10.97
2018-09-24T00:37:26.127Z,10.97
2018-09-24T00:39:56.437Z,10.77
2018-09-24T00:42:26.560Z,11.00
2018-09-24T00:44:56.271Z,10.40
2018-09-24T00:47:26.539Z,10.87
2018-09-24T00:49:56.641Z,11.47
2018-09-24T00:52:27.167Z,11.23
2018-09-24T00:54:57.066Z,9.93
2018-09-24T00:57:29.199Z,10.80
2018-09-24T00:59:59.487Z,10.40
2018-09-24T01:02:29.539Z,9.00
2018-09-24T01:04:59.665Z,9.07
2018-09-24T01:07:29.565Z,9.17
2018-09-24T01:09:59.535Z,8.87
2018-09-24T01:12:30.121Z,8.60
2018-09-24T01:14:59.971Z,8.67
2018-09-24T01:17:30.848Z,7.23
2018-09-24T01:20:00.827Z,8.53
2018-09-24T01:22:31.061Z,8.80
2018-09-24T01:25:01.266Z,8.73
2018-09-24T01:27:31.227Z,7.80
2018-09-24T01:30:01.327Z,7.17
2018-09-24T01:32:31.517Z,7.30
2018-09-24T01:35:01.262Z,7.37
2018-09-24T01:37:32.528Z,7.50
2018-09-24T01:40:02.584Z,7.47
2018-09-24T01:42:32.665Z,7.40
2018-09-24T01:45:02.956Z,7.03
2018-09-24T01:47:32.721Z,7.60
2018-09-24T01:50:02.524Z,7.00
2018-09-24T01:52:32.479Z,6.23
2018-09-24T01:55:02.324Z,6.63
2018-09-24T01:57:34.040Z,5.80
2018-09-24T02:00:03.887Z,6.77
2018-09-24T02:02:33.907Z,5.67
2018-09-24T02:05:03.584Z,6.00
2018-09-24T02:07:35.006Z,6.00
2018-09-24T02:10:04.933Z,5.47
2018-09-24T02:12:35.405Z,5.90
2018-09-24T02:15:06.788Z,6.20
2018-09-24T02:17:36.935Z,5.97
2018-09-24T02:20:07.017Z,5.80
2018-09-24T02:22:37.051Z,6.13
2018-09-24T02:25:06.853Z,7.10
2018-09-24T02:27:37.044Z,7.77
2018-09-24T02:30:07.335Z,9.70
2018-09-24T02:32:37.105Z,9.77
2018-09-24T02:35:07.295Z,9.40
2018-09-24T02:37:38.071Z,9.70
2018-09-24T02:40:09.111Z,9.80
2018-09-24T02:42:38.804Z,9.70
2018-09-24T02:45:08.455Z,10.03
2018-09-24T02:47:38.869Z,9.63
2018-09-24T02:50:08.930Z,10.40
2018-09-24T02:52:38.752Z,8.87
2018-09-24T02:55:15.908Z,7.80
2018-09-24T02:57:45.870Z,7.17
2018-09-24T03:00:22.335Z,6.50
2018-09-24T03:02:52.261Z,5.53
2018-09-24T03:05:22.829Z,5.83
2018-09-24T03:07:52.707Z,5.77
2018-09-24T03:10:22.723Z,4.87
2018-09-24T03:12:53.545Z,5.53
2018-09-24T03:15:23.422Z,5.10
2018-09-24T03:17:53.341Z,5.53
2018-09-24T03:20:23.374Z,5.10
2018-09-24T03:22:53.293Z,5.00
2018-09-24T03:25:23.088Z,5.00
2018-09-24T03:27:53.002Z,5.30
2018-09-24T03:30:23.114Z,6.10
2018-09-24T03:32:53.578Z,5.33
2018-09-24T03:35:23.533Z,5.13
2018-09-24T03:37:53.954Z,5.67
2018-09-24T03:40:23.677Z,4.60
2018-09-24T03:42:53.654Z,5.53
2018-09-24T03:45:23.611Z,4.53
2018-09-24T03:47:53.755Z,5.03
2018-09-24T03:50:23.269Z,5.57
2018-09-24T03:52:53.187Z,4.93
2018-09-24T03:55:22.927Z,4.80
2018-09-24T03:57:52.764Z,5.13
2018-09-24T04:00:22.805Z,5.00
2018-09-24T04:02:53.312Z,5.20
2018-09-24T04:05:28.131Z,5.57
2018-09-24T04:08:03.503Z,5.50
2018-09-24T04:10:42.120Z,5.37
2018-09-24T04:13:17.150Z,6.37
2018-09-24T04:15:52.507Z,6.97
2018-09-24T04:18:27.632Z,7.20
2018-09-24T04:21:02.725Z,7.03
2018-09-24T04:23:37.928Z,8.77
2018-09-24T04:26:13.103Z,9.03
2018-09-24T04:28:48.413Z,8.40
2018-09-24T04:31:23.546Z,8.83
2018-09-24T04:33:59.284Z,8.70
2018-09-24T04:36:33.900Z,8.77
2018-09-24T04:39:09.183Z,8.50
2018-09-24T04:41:44.901Z,8.10
2018-09-24T04:44:21.024Z,9.00
2018-09-24T04:46:56.421Z,8.43
2018-09-24T04:49:33.394Z,9.70
2018-09-24T04:54:50.149Z,10.20
2018-09-24T04:57:25.339Z,8.23
2018-09-24T05:00:00.515Z,11.70
2018-09-24T05:02:39.068Z,11.43
2018-09-24T05:05:14.164Z,9.97
2018-09-24T05:07:49.693Z,9.13
2018-09-24T05:10:25.750Z,9.50
2018-09-24T05:13:00.620Z,8.00
2018-09-24T05:15:35.731Z,8.77
2018-09-24T05:18:10.744Z,11.60
2018-09-24T05:20:45.860Z,11.03
2018-09-24T05:23:20.894Z,11.23
2018-09-24T05:25:56.982Z,10.33
2018-09-24T05:28:31.789Z,9.43
2018-09-24T05:31:06.703Z,10.37
2018-09-24T05:33:41.619Z,10.87
2018-09-24T05:36:16.763Z,11.57
2018-09-24T05:38:51.983Z,11.07
2018-09-24T05:41:26.727Z,10.63
2018-09-24T05:44:01.847Z,11.27
2018-09-24T05:46:38.115Z,10.90
2018-09-24T05:49:14.095Z,11.70
2018-09-24T05:51:49.207Z,10.57
2018-09-24T05:54:24.346Z,11.70
2018-09-24T05:56:59.597Z,11.57
2018-09-24T05:59:34.883Z,9.73
2018-09-24T06:02:09.785Z,9.67
2018-09-24T06:04:45.146Z,10.57
2018-09-24T06:07:20.599Z,10.23
2018-09-24T06:09:55.516Z,10.80
2018-09-24T06:12:30.725Z,11.23
2018-09-24T06:15:05.803Z,11.13
2018-09-24T06:17:40.890Z,9.60
2018-09-24T06:20:15.676Z,9.17
2018-09-24T06:22:50.409Z,9.90
2018-09-24T06:25:25.493Z,8.73
2018-09-24T06:28:06.480Z,7.43
2018-09-24T06:33:22.648Z,7.50
2018-09-24T06:35:57.827Z,8.13
2018-09-24T06:38:32.834Z,8.53
2018-09-24T06:41:08.160Z,7.87
2018-09-24T06:43:43.678Z,9.13
2018-09-24T06:46:18.968Z,8.83
2018-09-24T06:48:55.080Z,8.10
2018-09-24T06:51:29.976Z,8.90
2018-09-24T06:54:05.015Z,9.57
2018-09-24T06:56:39.939Z,10.17
2018-09-24T06:59:15.321Z,9.93
2018-09-24T07:01:52.007Z,7.40
2018-09-24T07:04:26.693Z,8.50
2018-09-24T07:07:02.153Z,8.30
2018-09-24T07:09:37.357Z,9.07
2018-09-24T07:12:12.434Z,8.37
2018-09-24T07:14:47.927Z,7.17
2018-09-24T07:17:22.802Z,4.03
2018-09-24T07:19:58.894Z,2.60
2018-09-24T07:22:33.731Z,3.13
2018-09-24T07:25:09.061Z,2.53
2018-09-24T07:27:44.131Z,2.83
2018-09-24T07:30:19.210Z,2.70
2018-09-24T07:32:54.837Z,2.50
2018-09-24T07:35:30.106Z,3.03
2018-09-24T07:38:05.360Z,2.40
2018-09-24T07:40:40.445Z,2.30
2018-09-24T07:43:15.751Z,2.30
2018-09-24T07:45:50.337Z,2.87
2018-09-24T07:48:25.247Z,2.37
2018-09-24T07:51:01.072Z,2.13
2018-09-24T07:53:36.293Z,2.83
2018-09-24T07:56:11.830Z,2.87
2018-09-24T07:58:46.905Z,2.40
2018-09-24T08:01:22.393Z,2.17
2018-09-24T08:03:57.060Z,2.30
2018-09-24T08:06:32.222Z,2.00
2018-09-24T08:09:07.534Z,2.00
2018-09-24T08:11:42.697Z,2.20
2018-09-24T08:14:17.751Z,2.13
2018-09-24T08:16:54.288Z,2.00
2018-09-24T08:19:29.235Z,2.43
2018-09-24T08:22:04.219Z,2.30
2018-09-24T08:24:39.462Z,2.33
2018-09-24T08:27:14.738Z,2.03
2018-09-24T08:29:56.946Z,2.17
2018-09-24T08:32:31.572Z,2.13
2018-09-24T08:35:06.568Z,1.90
2018-09-24T08:37:41.778Z,1.90
2018-09-24T08:40:16.789Z,2.23
2018-09-24T08:42:51.926Z,2.77
2018-09-24T08:45:27.093Z,1.90
2018-09-24T08:48:02.357Z,2.07
2018-09-24T08:50:37.234Z,2.07
2018-09-24T08:53:12.572Z,2.07
2018-09-24T08:55:47.364Z,1.77
2018-09-24T08:58:22.371Z,2.00
2018-09-24T09:01:00.508Z,1.80
2018-09-24T09:03:35.775Z,1.90
2018-09-24T09:06:11.153Z,1.83
2018-09-24T09:08:46.113Z,1.87
2018-09-24T09:11:22.321Z,2.40
2018-09-24T09:13:57.472Z,1.97
2018-09-24T09:16:32.835Z,2.20
2018-09-24T09:19:13.544Z,2.07
2018-09-24T09:21:48.905Z,1.90
2018-09-24T09:24:24.065Z,1.83
2018-09-24T09:27:00.878Z,1.70
2018-09-24T09:29:36.349Z,1.70
2018-09-24T09:32:11.635Z,1.87
2018-09-24T09:34:46.843Z,1.53
2018-09-24T09:37:22.026Z,2.03
2018-09-24T09:39:57.519Z,1.73
2018-09-24T09:42:32.702Z,2.10
2018-09-24T09:45:08.581Z,2.20
2018-09-24T09:47:43.783Z,1.97
2018-09-24T09:50:18.462Z,2.10
2018-09-24T09:52:53.306Z,1.50
2018-09-24T09:55:28.256Z,1.37
2018-09-24T09:58:03.082Z,1.30
2018-09-24T10:00:37.821Z,1.93
2018-09-24T10:03:12.504Z,1.43
2018-09-24T10:05:47.546Z,1.37
2018-09-24T10:08:22.724Z,1.87
2018-09-24T10:10:59.881Z,1.60
2018-09-24T10:13:34.882Z,1.50
2018-09-24T10:16:11.856Z,1.37
2018-09-24T10:18:46.506Z,1.70
2018-09-24T10:21:21.484Z,1.67
2018-09-24T10:23:56.064Z,1.57
2018-09-24T10:26:30.705Z,1.60
2018-09-24T10:29:05.920Z,1.67
2018-09-24T10:31:40.914Z,1.93
2018-09-24T10:34:15.807Z,1.43
2018-09-24T10:36:52.722Z,1.53
2018-09-24T10:39:27.190Z,1.43
2018-09-24T10:42:02.344Z,1.87
2018-09-24T10:44:36.632Z,1.70
2018-09-24T10:47:11.333Z,1.30
2018-09-24T10:52:28.189Z,1.83
2018-09-24T10:55:03.296Z,1.27
2018-09-24T10:57:38.757Z,1.23
2018-09-24T11:00:14.899Z,1.00
2018-09-24T11:02:50.236Z,1.60
2018-09-24T11:05:25.565Z,1.30
2018-09-24T11:08:00.314Z,1.60
2018-09-24T11:10:35.272Z,1.70
2018-09-24T11:13:10.598Z,1.40
2018-09-24T11:15:45.566Z,1.20
2018-09-24T11:18:20.810Z,1.53
2018-09-24T11:20:55.763Z,1.47
2018-09-24T11:23:32.792Z,1.30
2018-09-24T11:26:07.685Z,1.40
2018-09-24T11:28:43.016Z,1.67
2018-09-24T11:31:19.830Z,1.40
2018-09-24T11:33:54.794Z,1.40
2018-09-24T11:36:29.642Z,1.17
2018-09-24T11:39:04.555Z,1.60
2018-09-24T11:41:39.536Z,1.57
2018-09-24T11:44:14.714Z,1.20
2018-09-24T11:46:49.483Z,1.60
2018-09-24T11:49:24.576Z,1.30
2018-09-24T11:51:59.744Z,1.47
2018-09-24T11:54:34.761Z,1.50
2018-09-24T11:57:12.189Z,1.50
2018-09-24T11:59:47.229Z,1.87
2018-09-24T12:02:22.326Z,1.60
2018-09-24T12:04:57.428Z,1.30
2018-09-24T12:07:32.435Z,1.03
2018-09-24T12:10:07.604Z,1.53
2018-09-24T12:12:42.349Z,2.00
2018-09-24T12:15:17.492Z,1.47
2018-09-24T12:17:52.658Z,1.53
2018-09-24T12:20:28.008Z,1.50
2018-09-24T12:23:02.802Z,1.60
2018-09-24T12:25:37.593Z,1.90
2018-09-24T12:28:13.442Z,1.60
2018-09-24T12:30:48.593Z,1.40
2018-09-24T12:36:05.653Z,1.83
2018-09-24T12:38:40.858Z,1.10
2018-09-24T12:41:16.497Z,1.60
2018-09-24T12:43:52.166Z,1.27
2018-09-24T12:46:27.478Z,1.50
2018-09-24T12:49:02.409Z,1.40
2018-09-24T12:51:37.626Z,1.60
2018-09-24T12:54:12.371Z,1.83
2018-09-24T12:56:53.281Z,2.03
2018-09-24T12:59:28.965Z,1.97
2018-09-24T13:02:04.299Z,1.40
2018-09-24T13:04:39.873Z,1.80
2018-09-24T13:07:16.322Z,1.70
2018-09-24T13:09:51.735Z,2.00
2018-09-24T13:12:26.935Z,1.93
2018-09-24T13:15:01.767Z,1.53
2018-09-24T13:17:36.377Z,1.60
2018-09-24T13:20:13.472Z,1.43
2018-09-24T13:22:49.553Z,1.57
2018-09-24T13:25:25.039Z,1.60
2018-09-24T13:28:00.591Z,1.30
2018-09-24T13:30:35.621Z,1.60
2018-09-24T13:33:10.589Z,1.33
2018-09-24T13:35:45.831Z,1.50
2018-09-24T13:38:20.724Z,1.60
2018-09-24T13:40:56.280Z,1.60
2018-09-24T13:43:31.619Z,1.90
2018-09-24T13:46:06.710Z,1.30
2018-09-24T13:48:42.022Z,1.40
2018-09-24T13:51:18.527Z,1.70
2018-09-24T13:53:54.061Z,1.83
2018-09-24T13:56:29.439Z,1.40
2018-09-24T13:59:05.696Z,1.60
2018-09-24T14:01:41.685Z,1.57
2018-09-24T14:04:17.804Z,1.63
2018-09-24T14:06:58.588Z,1.40
2018-09-24T14:09:34.502Z,1.80
2018-09-24T14:12:11.151Z,1.20
2018-09-24T14:14:49.140Z,1.83
2018-09-24T14:20:07.179Z,1.37
2018-09-24T14:22:44.852Z,1.90
2018-09-24T14:25:22.688Z,1.70
2018-09-24T14:27:57.927Z,1.50
2018-09-24T14:30:33.802Z,1.40
2018-09-24T14:33:08.688Z,1.40
2018-09-24T14:35:44.209Z,1.60
2018-09-24T14:38:20.808Z,1.43
2018-09-24T14:40:56.389Z,1.43
2018-09-24T14:43:32.139Z,1.70
2018-09-24T14:46:12.765Z,1.50
2018-09-24T14:48:50.704Z,1.77
2018-09-24T14:51:26.025Z,1.70
2018-09-24T14:54:01.546Z,1.73
2018-09-24T14:56:38.902Z,1.90
2018-09-24T14:59:15.237Z,1.63
2018-09-24T15:01:50.327Z,1.50
2018-09-24T15:04:27.034Z,1.80
2018-09-24T15:07:02.075Z,1.87
2018-09-24T15:09:37.383Z,1.47
2018-09-24T15:12:13.032Z,2.20
2018-09-24T15:14:49.803Z,1.83
2018-09-24T15:17:26.741Z,1.70
2018-09-24T15:20:01.863Z,1.83
2018-09-24T15:22:37.063Z,1.70
2018-09-24T15:25:13.059Z,1.77
2018-09-24T15:27:48.223Z,1.80
2018-09-24T15:30:24.226Z,1.70
2018-09-24T15:32:59.342Z,1.30
2018-09-24T15:35:34.549Z,2.00
2018-09-24T15:38:09.802Z,1.63
2018-09-24T15:40:45.818Z,1.70
2018-09-24T15:43:21.784Z,2.20
2018-09-24T15:45:57.300Z,2.10
2018-09-24T15:48:33.730Z,1.70
2018-09-24T15:51:09.124Z,2.00
2018-09-24T15:53:44.508Z,2.37
2018-09-24T15:56:19.805Z,2.07
2018-09-24T15:58:56.050Z,1.90
2018-09-24T16:04:12.938Z,2.37
2018-09-24T16:06:48.225Z,2.17
2018-09-24T16:09:23.477Z,2.37
2018-09-24T16:11:58.431Z,2.07
2018-09-24T16:14:34.609Z,2.30
2018-09-24T16:17:09.740Z,1.93
2018-09-24T16:19:44.232Z,1.77
2018-09-24T16:22:19.497Z,2.30
2018-09-24T16:24:54.984Z,2.10
2018-09-24T16:27:29.711Z,2.53
2018-09-24T16:30:05.292Z,3.10
2018-09-24T16:32:40.635Z,2.87
2018-09-24T16:35:16.827Z,2.53
2018-09-24T16:37:51.985Z,1.90
2018-09-24T16:40:26.787Z,2.40
2018-09-24T16:43:01.779Z,2.00
2018-09-24T16:45:37.166Z,2.13
2018-09-24T16:50:55.429Z,2.40
2018-09-24T16:53:33.074Z,2.40
2018-09-24T16:56:08.317Z,1.83
2018-09-24T16:58:43.144Z,2.00
2018-09-24T17:01:18.086Z,1.73
2018-09-24T17:03:53.419Z,1.80
2018-09-24T17:06:28.781Z,1.93
2018-09-24T17:09:07.113Z,1.50
2018-09-24T17:11:42.853Z,2.03
2018-09-24T17:14:19.374Z,1.50
2018-09-24T17:16:57.421Z,2.17
2018-09-24T17:19:34.030Z,2.47
2018-09-24T17:22:09.242Z,2.40
2018-09-24T17:24:45.037Z,2.90
2018-09-24T17:27:20.576Z,3.60
2018-09-24T17:29:55.393Z,3.70
2018-09-24T17:32:33.116Z,4.20
2018-09-24T17:35:08.812Z,3.70
2018-09-24T17:37:44.933Z,3.60
2018-09-24T17:40:20.364Z,3.50
2018-09-24T17:42:55.600Z,4.50
2018-09-24T17:45:30.065Z,4.10
2018-09-24T17:48:05.153Z,5.13
2018-09-24T17:50:41.168Z,4.83
2018-09-24T17:53:15.977Z,4.80
2018-09-24T17:55:50.833Z,3.67
2018-09-24T17:58:25.588Z,4.13
2018-09-24T18:01:00.320Z,3.57
2018-09-24T18:03:35.879Z,2.83
2018-09-24T18:06:10.818Z,2.90
2018-09-24T18:08:46.108Z,2.90
2018-09-24T18:11:21.175Z,2.73
2018-09-24T18:13:56.202Z,1.93
2018-09-24T18:16:31.410Z,2.50
2018-09-24T18:19:11.392Z,2.20
2018-09-24T18:21:46.148Z,2.80
2018-09-24T18:24:21.455Z,2.40
2018-09-24T18:26:56.482Z,2.43
2018-09-24T18:29:31.406Z,2.20
2018-09-24T18:32:06.625Z,2.27
2018-09-24T18:34:42.090Z,3.03
2018-09-24T18:37:18.475Z,2.47
2018-09-24T18:39:53.513Z,2.43
2018-09-24T18:42:28.888Z,2.23
2018-09-24T18:45:04.069Z,2.33
2018-09-24T18:47:39.865Z,2.93
2018-09-24T18:50:15.638Z,2.47
2018-09-24T18:52:51.293Z,2.53
2018-09-24T18:55:26.456Z,2.20
2018-09-24T18:58:03.084Z,2.50
2018-09-24T19:00:38.329Z,3.23
2018-09-24T19:03:13.039Z,3.83
2018-09-24T19:05:48.172Z,3.00
2018-09-24T19:08:23.339Z,2.20
2018-09-24T19:10:58.438Z,1.90
2018-09-24T19:13:34.486Z,2.40
2018-09-24T19:16:09.727Z,2.63
2018-09-24T19:18:45.418Z,2.47
2018-09-24T19:21:20.711Z,2.33
2018-09-24T19:23:56.026Z,2.13
2018-09-24T19:26:31.006Z,2.23
2018-09-24T19:29:06.263Z,2.37
2018-09-24T19:31:40.997Z,2.10
2018-09-24T19:34:16.175Z,2.27
2018-09-24T19:36:51.360Z,2.27
2018-09-24T19:39:26.114Z,2.27
2018-09-24T19:42:01.303Z,1.80
2018-09-24T19:44:36.547Z,2.57
2018-09-24T19:47:11.826Z,2.30
2018-09-24T19:49:47.868Z,2.03
2018-09-24T19:52:23.056Z,2.07
2018-09-24T19:54:58.128Z,2.60
2018-09-24T19:57:33.264Z,2.63
2018-09-24T20:00:09.447Z,2.00
2018-09-24T20:02:45.655Z,3.10
2018-09-24T20:05:21.312Z,1.77
2018-09-24T20:07:56.895Z,2.10
2018-09-24T20:10:31.734Z,1.97
2018-09-24T20:13:06.594Z,2.33
2018-09-24T20:15:55.788Z,2.20
2018-09-24T20:18:30.848Z,2.10
2018-09-24T20:23:50.803Z,2.20
2018-09-24T20:26:30.952Z,2.07
2018-09-24T20:29:07.840Z,3.13
2018-09-24T20:31:43.254Z,3.00
2018-09-24T20:34:18.351Z,1.97
2018-09-24T20:36:53.334Z,2.10
2018-09-24T20:39:28.649Z,2.57
2018-09-24T20:42:06.281Z,2.60
2018-09-24T20:44:41.038Z,2.43
2018-09-24T20:47:16.554Z,2.80
2018-09-24T20:49:51.935Z,2.33
2018-09-24T20:52:27.677Z,2.20
2018-09-24T20:55:03.179Z,2.10
2018-09-24T20:57:39.491Z,2.40
2018-09-24T21:00:14.362Z,2.37
2018-09-24T21:02:49.914Z,3.87
2018-09-24T21:05:24.937Z,2.83
2018-09-24T21:07:59.844Z,2.87
2018-09-24T21:10:34.863Z,2.53
2018-09-24T21:13:09.582Z,3.60
2018-09-24T21:15:44.482Z,3.50
2018-09-24T21:18:19.602Z,3.30
2018-09-24T21:20:54.442Z,3.43
2018-09-24T21:23:30.044Z,3.10
2018-09-24T21:26:05.279Z,2.87
2018-09-24T21:28:39.791Z,2.60
2018-09-24T21:31:14.612Z,2.93
2018-09-24T21:33:50.832Z,3.30
2018-09-24T21:36:25.859Z,2.43
2018-09-24T21:39:01.179Z,2.50
2018-09-24T21:41:36.149Z,2.80
2018-09-24T21:44:11.053Z,3.03
2018-09-24T21:46:46.241Z,2.70
2018-09-24T21:49:21.316Z,2.60
2018-09-24T21:51:56.133Z,2.87
2018-09-24T21:54:31.438Z,2.47
2018-09-24T21:57:06.324Z,2.60
2018-09-24T21:59:41.214Z,2.70
2018-09-24T22:02:15.938Z,2.67
2018-09-24T22:04:51.456Z,2.83
2018-09-24T22:07:26.420Z,2.60
2018-09-24T22:10:01.539Z,3.10
2018-09-24T22:12:36.362Z,2.47
2018-09-24T22:15:11.019Z,2.00
2018-09-24T22:17:45.802Z,2.50
2018-09-24T22:20:20.538Z,2.50
2018-09-24T22:22:55.691Z,2.33
2018-09-24T22:25:30.186Z,2.27
2018-09-24T22:28:04.604Z,2.40
2018-09-24T22:30:39.503Z,2.83
2018-09-24T22:33:14.380Z,2.70
2018-09-24T22:35:49.095Z,2.40
2018-09-24T22:38:23.721Z,2.43
2018-09-24T22:40:58.312Z,3.20
2018-09-24T22:43:33.618Z,2.27
2018-09-24T22:46:08.267Z,2.27
2018-09-24T22:48:46.633Z,2.83
2018-09-24T22:51:21.083Z,2.60
2018-09-24T22:53:55.866Z,2.37
2018-09-24T22:56:30.107Z,3.10
2018-09-24T22:59:04.787Z,3.07
2018-09-24T23:01:39.688Z,2.70
2018-09-24T23:04:14.423Z,2.23
2018-09-24T23:06:49.154Z,2.57
2018-09-24T23:09:24.314Z,2.40
2018-09-24T23:11:58.953Z,2.23
2018-09-24T23:14:33.531Z,1.83
2018-09-24T23:17:08.190Z,2.57
2018-09-24T23:19:42.886Z,3.10
2018-09-24T23:22:18.059Z,2.33
2018-09-24T23:24:52.825Z,2.50
2018-09-24T23:27:33.056Z,2.20
2018-09-24T23:30:07.679Z,2.10
2018-09-24T23:32:42.247Z,2.83
2018-09-24T23:35:16.883Z,2.60
2018-09-24T23:37:51.965Z,2.10
2018-09-24T23:40:26.758Z,2.40
2018-09-24T23:43:01.299Z,2.37
2018-09-24T23:45:36.631Z,2.50
2018-09-24T23:48:11.238Z,2.40
2018-09-24T23:50:46.349Z,2.43
2018-09-24T23:53:23.306Z,2.33
2018-09-24T23:55:58.796Z,2.60
2018-09-24T23:58:33.738Z,2.40
